Saint Helens, OR (97051)

12:12 AM PDT on April 24, 2017 (GMT -0700)
Hankey Road | | Change Station

Elev 217 ft 45.87 °N, 122.83 °W | Updated 12 seconds ago

Rain
Rain
46.8 °F
Feels Like 47 °F
N
1.3
Wind Variable Wind from NE
Gusts 2.5 mph

Today
High -- | Low -- °F
--% Chance of Precip.
Yesterday
High -- | Low -- °F
Precip. -- in
Pressure 29.82 in
Visibility 10.0 miles
Clouds Mostly Cloudy 6000 ft
Overcast 7500 ft
Windchill 47 °F
Dew Point 46 °F
Humidity 97%
Rainfall 0.00 in
Snow Depth Not available.
6:09 AM 8:10 PM
Waning Crescent, 7% visible
METAR KSPB 240653Z AUTO 16003KT 10SM -RA BKN060 OVC075 08/07 A2982 RMK AO2 SLP097 P0001 T00830072
Pressure 29.82 in
Visibility 10.0 miles
Clouds Mostly Cloudy 6000 ft
Overcast 7500 ft
Windchill 47 °F
Dew Point 46 °F
Humidity 97%
Rainfall 0.00 in
Snow Depth Not available.
6:09 AM 8:10 PM
Waning Crescent, 7% visible
METAR KSPB 240653Z AUTO 16003KT 10SM -RA BKN060 OVC075 08/07 A2982 RMK AO2 SLP097 P0001 T00830072

Get Severe Weather Alerts

Thanks for signing up!

Be on the lookout for a verification email in your inbox.

You'll start receiving the daily forecast at 8 AM.

×

10-Day Weather Forecast

Almanac

Astronomy

Apr. 24, 2017 Rise Set
Actual Time
Civil Twilight
Nautical Twilight
Astronomical Twilight
Moon
Length of Visible Light
Length of Day
Tomorrow will be .
, % of the Moon is Illuminated

Today's Extremes

State Highs State Lows

Community

WunderPhotos

WunderBlog® & News

Nearby

Air Quality

  Air Quality AQ Index Pollutant
Not available.

Snow Depth

Station Depth Elevation

Earthquake Activity

City Distance Mag. Time & Date
Minimum magnitude displayed is 2.5.

Coastal Water Temperatures

Place Temperature

Stations

Nearby Weather Stations

Station Location Temp. Windchill Dew Point Humidity Wind Precip. Elev Updated Type
                   

Watches & Warnings

There are currently no watches in effect.